sensor_id;sensor_type;location;lat;lon;timestamp;temperature;humidity
21193;DHT22;10754;51.106;7.164;2023-05-27T00:02:21;17.40;99.90
21193;DHT22;10754;51.106;7.164;2023-05-27T00:04:47;17.40;99.90
21193;DHT22;10754;51.106;7.164;2023-05-27T00:07:12;17.40;99.90
21193;DHT22;10754;51.106;7.164;2023-05-27T00:09:38;17.40;99.90
21193;DHT22;10754;51.106;7.164;2023-05-27T00:12:04;17.40;99.90
21193;DHT22;10754;51.106;7.164;2023-05-27T00:14:29;17.40;99.90
21193;DHT22;10754;51.106;7.164;2023-05-27T00:16:55;17.30;99.90
21193;DHT22;10754;51.106;7.164;2023-05-27T00:19:20;17.30;99.90
21193;DHT22;10754;51.106;7.164;2023-05-27T00:21:46;17.30;99.90
21193;DHT22;10754;51.106;7.164;2023-05-27T00:24:11;17.30;99.90
21193;DHT22;10754;51.106;7.164;2023-05-27T00:26:37;17.30;99.90
21193;DHT22;10754;51.106;7.164;2023-05-27T00:29:04;17.30;99.90
21193;DHT22;10754;51.106;7.164;2023-05-27T00:31:29;17.20;99.90
21193;DHT22;10754;51.106;7.164;2023-05-27T00:33:55;17.20;99.90
21193;DHT22;10754;51.106;7.164;2023-05-27T00:36:20;17.20;99.90
21193;DHT22;10754;51.106;7.164;2023-05-27T00:38:46;17.20;99.90
21193;DHT22;10754;51.106;7.164;2023-05-27T00:41:12;17.10;99.90
21193;DHT22;10754;51.106;7.164;2023-05-27T00:43:39;17.10;99.90
21193;DHT22;10754;51.106;7.164;2023-05-27T00:46:04;17.10;99.90
21193;DHT22;10754;51.106;7.164;2023-05-27T00:48:30;17.10;99.90
21193;DHT22;10754;51.106;7.164;2023-05-27T00:50:56;17.00;99.90
21193;DHT22;10754;51.106;7.164;2023-05-27T00:53:23;16.90;99.90
21193;DHT22;10754;51.106;7.164;2023-05-27T00:55:52;16.90;99.90
21193;DHT22;10754;51.106;7.164;2023-05-27T00:58:19;16.90;1.40
21193;DHT22;10754;51.106;7.164;2023-05-27T01:00:49;16.80;1.00
21193;DHT22;10754;51.106;7.164;2023-05-27T01:03:15;16.70;1.00
21193;DHT22;10754;51.106;7.164;2023-05-27T01:05:41;16.80;99.90
21193;DHT22;10754;51.106;7.164;2023-05-27T01:08:17;16.50;99.90
21193;DHT22;10754;51.106;7.164;2023-05-27T01:10:50;16.60;1.00
21193;DHT22;10754;51.106;7.164;2023-05-27T01:15:53;16.70;1.00
21193;DHT22;10754;51.106;7.164;2023-05-27T01:18:19;16.70;99.90
21193;DHT22;10754;51.106;7.164;2023-05-27T01:20:51;16.70;1.40
21193;DHT22;10754;51.106;7.164;2023-05-27T01:23:17;16.70;1.00
21193;DHT22;10754;51.106;7.164;2023-05-27T01:25:43;16.70;1.00
21193;DHT22;10754;51.106;7.164;2023-05-27T01:28:08;16.60;1.00
21193;DHT22;10754;51.106;7.164;2023-05-27T01:30:34;16.60;1.40
21193;DHT22;10754;51.106;7.164;2023-05-27T01:33:15;16.60;1.00
21193;DHT22;10754;51.106;7.164;2023-05-27T01:35:45;16.70;1.00
21193;DHT22;10754;51.106;7.164;2023-05-27T01:38:15;16.60;1.00
21193;DHT22;10754;51.106;7.164;2023-05-27T01:40:41;16.60;1.00
21193;DHT22;10754;51.106;7.164;2023-05-27T01:43:09;16.60;99.90
21193;DHT22;10754;51.106;7.164;2023-05-27T01:45:35;16.60;1.00
21193;DHT22;10754;51.106;7.164;2023-05-27T01:48:01;16.50;99.90
21193;DHT22;10754;51.106;7.164;2023-05-27T01:50:26;16.50;1.00
21193;DHT22;10754;51.106;7.164;2023-05-27T01:52:52;16.40;1.00
21193;DHT22;10754;51.106;7.164;2023-05-27T01:55:18;16.40;1.00
21193;DHT22;10754;51.106;7.164;2023-05-27T01:57:44;16.30;1.40
21193;DHT22;10754;51.106;7.164;2023-05-27T02:00:10;16.30;1.00
21193;DHT22;10754;51.106;7.164;2023-05-27T02:02:35;16.30;1.00
21193;DHT22;10754;51.106;7.164;2023-05-27T02:05:02;16.20;99.90
21193;DHT22;10754;51.106;7.164;2023-05-27T02:07:27;16.20;1.00
21193;DHT22;10754;51.106;7.164;2023-05-27T02:09:53;16.10;1.00
21193;DHT22;10754;51.106;7.164;2023-05-27T02:12:19;16.10;1.00
21193;DHT22;10754;51.106;7.164;2023-05-27T02:14:45;16.10;99.90
21193;DHT22;10754;51.106;7.164;2023-05-27T02:17:11;16.00;1.00
21193;DHT22;10754;51.106;7.164;2023-05-27T02:19:37;16.00;1.00
21193;DHT22;10754;51.106;7.164;2023-05-27T02:22:02;15.90;1.00
21193;DHT22;10754;51.106;7.164;2023-05-27T02:24:28;15.90;1.00
21193;DHT22;10754;51.106;7.164;2023-05-27T02:26:53;15.80;1.00
21193;DHT22;10754;51.106;7.164;2023-05-27T02:29:19;15.80;1.00
21193;DHT22;10754;51.106;7.164;2023-05-27T02:31:44;15.80;1.00
21193;DHT22;10754;51.106;7.164;2023-05-27T02:34:10;15.70;1.00
21193;DHT22;10754;51.106;7.164;2023-05-27T02:36:35;15.70;1.00
21193;DHT22;10754;51.106;7.164;2023-05-27T02:39:01;15.60;1.00
21193;DHT22;10754;51.106;7.164;2023-05-27T02:41:26;15.60;1.00
21193;DHT22;10754;51.106;7.164;2023-05-27T02:43:52;15.50;1.00
21193;DHT22;10754;51.106;7.164;2023-05-27T02:46:17;15.50;1.00
21193;DHT22;10754;51.106;7.164;2023-05-27T02:48:43;15.50;1.00
21193;DHT22;10754;51.106;7.164;2023-05-27T02:51:09;15.40;1.00
21193;DHT22;10754;51.106;7.164;2023-05-27T02:53:34;15.40;1.00
21193;DHT22;10754;51.106;7.164;2023-05-27T02:56:00;15.40;1.00
21193;DHT22;10754;51.106;7.164;2023-05-27T02:58:25;15.30;1.00
21193;DHT22;10754;51.106;7.164;2023-05-27T03:00:51;15.30;1.00
21193;DHT22;10754;51.106;7.164;2023-05-27T03:03:17;15.30;1.00
21193;DHT22;10754;51.106;7.164;2023-05-27T03:05:43;15.20;1.00
21193;DHT22;10754;51.106;7.164;2023-05-27T03:08:08;15.20;1.00
21193;DHT22;10754;51.106;7.164;2023-05-27T03:10:34;15.10;1.00
21193;DHT22;10754;51.106;7.164;2023-05-27T03:12:59;15.10;1.00
21193;DHT22;10754;51.106;7.164;2023-05-27T03:15:25;15.10;1.00
21193;DHT22;10754;51.106;7.164;2023-05-27T03:17:50;15.10;1.00
21193;DHT22;10754;51.106;7.164;2023-05-27T03:20:17;15.00;1.00
21193;DHT22;10754;51.106;7.164;2023-05-27T03:22:44;14.90;1.00
21193;DHT22;10754;51.106;7.164;2023-05-27T03:25:09;14.90;1.00
21193;DHT22;10754;51.106;7.164;2023-05-27T03:27:35;14.90;1.00
21193;DHT22;10754;51.106;7.164;2023-05-27T03:30:02;14.90;1.00
21193;DHT22;10754;51.106;7.164;2023-05-27T03:32:28;14.90;1.00
21193;DHT22;10754;51.106;7.164;2023-05-27T03:34:54;14.80;1.00
21193;DHT22;10754;51.106;7.164;2023-05-27T03:37:19;14.80;1.00
21193;DHT22;10754;51.106;7.164;2023-05-27T03:39:45;14.70;1.00
21193;DHT22;10754;51.106;7.164;2023-05-27T03:42:10;14.70;1.00
21193;DHT22;10754;51.106;7.164;2023-05-27T03:44:36;14.70;1.00
21193;DHT22;10754;51.106;7.164;2023-05-27T03:47:02;14.70;1.00
21193;DHT22;10754;51.106;7.164;2023-05-27T03:49:28;14.60;1.00
21193;DHT22;10754;51.106;7.164;2023-05-27T03:51:53;14.60;1.00
21193;DHT22;10754;51.106;7.164;2023-05-27T03:54:19;14.60;1.00
21193;DHT22;10754;51.106;7.164;2023-05-27T03:56:44;14.60;1.00
21193;DHT22;10754;51.106;7.164;2023-05-27T03:59:10;14.50;1.00
21193;DHT22;10754;51.106;7.164;2023-05-27T04:01:37;14.50;1.00
21193;DHT22;10754;51.106;7.164;2023-05-27T04:04:03;14.50;1.00
21193;DHT22;10754;51.106;7.164;2023-05-27T04:06:28;14.50;1.00
21193;DHT22;10754;51.106;7.164;2023-05-27T04:08:54;14.40;1.00
21193;DHT22;10754;51.106;7.164;2023-05-27T04:11:19;14.40;1.00
21193;DHT22;10754;51.106;7.164;2023-05-27T04:13:46;14.40;1.00
21193;DHT22;10754;51.106;7.164;2023-05-27T04:16:12;14.40;1.00
21193;DHT22;10754;51.106;7.164;2023-05-27T04:18:37;14.40;1.00
21193;DHT22;10754;51.106;7.164;2023-05-27T04:21:03;14.30;1.00
21193;DHT22;10754;51.106;7.164;2023-05-27T04:23:29;14.30;1.00
21193;DHT22;10754;51.106;7.164;2023-05-27T04:25:55;14.30;1.00
21193;DHT22;10754;51.106;7.164;2023-05-27T04:28:20;14.30;1.00
21193;DHT22;10754;51.106;7.164;2023-05-27T04:30:46;14.30;1.00
21193;DHT22;10754;51.106;7.164;2023-05-27T04:33:15;14.30;1.00
21193;DHT22;10754;51.106;7.164;2023-05-27T04:35:40;14.30;1.00
21193;DHT22;10754;51.106;7.164;2023-05-27T04:38:10;14.30;1.00
21193;DHT22;10754;51.106;7.164;2023-05-27T04:40:36;14.30;1.00
21193;DHT22;10754;51.106;7.164;2023-05-27T04:43:01;14.30;1.00
21193;DHT22;10754;51.106;7.164;2023-05-27T04:45:27;14.30;1.00
21193;DHT22;10754;51.106;7.164;2023-05-27T04:47:54;14.30;1.00
21193;DHT22;10754;51.106;7.164;2023-05-27T04:50:20;14.30;1.00
21193;DHT22;10754;51.106;7.164;2023-05-27T04:52:46;14.30;1.00
21193;DHT22;10754;51.106;7.164;2023-05-27T04:55:12;14.30;1.00
21193;DHT22;10754;51.106;7.164;2023-05-27T04:57:38;14.30;1.00
21193;DHT22;10754;51.106;7.164;2023-05-27T05:00:06;14.30;1.00
21193;DHT22;10754;51.106;7.164;2023-05-27T05:02:34;14.30;1.00
21193;DHT22;10754;51.106;7.164;2023-05-27T05:05:09;14.30;1.00
21193;DHT22;10754;51.106;7.164;2023-05-27T05:07:36;14.30;1.00
21193;DHT22;10754;51.106;7.164;2023-05-27T05:10:07;14.30;1.00
21193;DHT22;10754;51.106;7.164;2023-05-27T05:12:33;14.40;1.00
21193;DHT22;10754;51.106;7.164;2023-05-27T05:14:59;14.40;1.00
21193;DHT22;10754;51.106;7.164;2023-05-27T05:17:25;14.40;1.00
21193;DHT22;10754;51.106;7.164;2023-05-27T05:19:51;14.40;1.00
21193;DHT22;10754;51.106;7.164;2023-05-27T05:22:17;14.40;1.00
21193;DHT22;10754;51.106;7.164;2023-05-27T05:24:48;14.50;1.00
21193;DHT22;10754;51.106;7.164;2023-05-27T05:27:14;14.50;1.00
21193;DHT22;10754;51.106;7.164;2023-05-27T05:29:40;14.50;1.00
21193;DHT22;10754;51.106;7.164;2023-05-27T05:32:07;14.60;1.00
21193;DHT22;10754;51.106;7.164;2023-05-27T05:34:32;14.60;1.00
21193;DHT22;10754;51.106;7.164;2023-05-27T05:36:58;14.70;1.00
21193;DHT22;10754;51.106;7.164;2023-05-27T05:39:23;14.70;1.00
21193;DHT22;10754;51.106;7.164;2023-05-27T05:41:49;14.70;1.00
21193;DHT22;10754;51.106;7.164;2023-05-27T05:44:15;14.80;1.00
21193;DHT22;10754;51.106;7.164;2023-05-27T05:46:41;14.80;1.00
21193;DHT22;10754;51.106;7.164;2023-05-27T05:49:06;14.80;1.00
21193;DHT22;10754;51.106;7.164;2023-05-27T05:51:32;14.90;1.00
21193;DHT22;10754;51.106;7.164;2023-05-27T05:53:58;14.80;1.00
21193;DHT22;10754;51.106;7.164;2023-05-27T05:56:24;14.90;1.00
21193;DHT22;10754;51.106;7.164;2023-05-27T05:58:51;14.90;1.00
21193;DHT22;10754;51.106;7.164;2023-05-27T06:01:16;14.90;1.00
21193;DHT22;10754;51.106;7.164;2023-05-27T06:03:42;15.10;1.00
21193;DHT22;10754;51.106;7.164;2023-05-27T06:06:07;15.10;1.00
21193;DHT22;10754;51.106;7.164;2023-05-27T06:08:33;15.10;1.00
21193;DHT22;10754;51.106;7.164;2023-05-27T06:10:59;15.20;1.00
21193;DHT22;10754;51.106;7.164;2023-05-27T06:13:24;15.30;1.00
21193;DHT22;10754;51.106;7.164;2023-05-27T06:15:50;15.30;1.00
21193;DHT22;10754;51.106;7.164;2023-05-27T06:18:15;15.40;1.00
21193;DHT22;10754;51.106;7.164;2023-05-27T06:20:41;15.40;1.00
21193;DHT22;10754;51.106;7.164;2023-05-27T06:23:06;15.50;1.00
21193;DHT22;10754;51.106;7.164;2023-05-27T06:25:32;15.50;1.00
21193;DHT22;10754;51.106;7.164;2023-05-27T06:27:58;15.50;1.00
21193;DHT22;10754;51.106;7.164;2023-05-27T06:30:24;15.60;1.00
21193;DHT22;10754;51.106;7.164;2023-05-27T06:32:49;15.60;1.00
21193;DHT22;10754;51.106;7.164;2023-05-27T06:35:15;15.60;1.00
21193;DHT22;10754;51.106;7.164;2023-05-27T06:37:41;15.70;1.00
21193;DHT22;10754;51.106;7.164;2023-05-27T06:40:07;15.70;1.00
21193;DHT22;10754;51.106;7.164;2023-05-27T06:42:32;15.80;1.00
21193;DHT22;10754;51.106;7.164;2023-05-27T06:44:58;15.90;1.00
21193;DHT22;10754;51.106;7.164;2023-05-27T06:47:23;16.10;1.00
21193;DHT22;10754;51.106;7.164;2023-05-27T06:49:49;16.10;1.00
21193;DHT22;10754;51.106;7.164;2023-05-27T06:52:14;16.10;1.00
21193;DHT22;10754;51.106;7.164;2023-05-27T06:54:40;16.10;1.00
21193;DHT22;10754;51.106;7.164;2023-05-27T06:57:06;16.30;1.00
21193;DHT22;10754;51.106;7.164;2023-05-27T06:59:31;16.40;1.00
21193;DHT22;10754;51.106;7.164;2023-05-27T07:01:57;16.40;1.00
21193;DHT22;10754;51.106;7.164;2023-05-27T07:04:23;16.50;1.00
21193;DHT22;10754;51.106;7.164;2023-05-27T07:06:49;16.60;1.00
21193;DHT22;10754;51.106;7.164;2023-05-27T07:09:15;16.70;1.00
21193;DHT22;10754;51.106;7.164;2023-05-27T07:11:40;16.70;1.00
21193;DHT22;10754;51.106;7.164;2023-05-27T07:14:06;16.60;1.00
21193;DHT22;10754;51.106;7.164;2023-05-27T07:16:32;16.60;1.00
21193;DHT22;10754;51.106;7.164;2023-05-27T07:18:57;16.80;1.00
21193;DHT22;10754;51.106;7.164;2023-05-27T07:21:23;17.10;1.00
21193;DHT22;10754;51.106;7.164;2023-05-27T07:23:48;17.10;1.00
21193;DHT22;10754;51.106;7.164;2023-05-27T07:26:14;17.20;1.00
21193;DHT22;10754;51.106;7.164;2023-05-27T07:28:39;17.20;1.00
21193;DHT22;10754;51.106;7.164;2023-05-27T07:31:05;17.30;1.00
21193;DHT22;10754;51.106;7.164;2023-05-27T07:33:30;17.60;99.90
21193;DHT22;10754;51.106;7.164;2023-05-27T07:35:56;17.60;99.90
21193;DHT22;10754;51.106;7.164;2023-05-27T07:38:21;17.40;1.00
21193;DHT22;10754;51.106;7.164;2023-05-27T07:40:47;17.20;1.00
21193;DHT22;10754;51.106;7.164;2023-05-27T07:43:13;17.30;1.00
21193;DHT22;10754;51.106;7.164;2023-05-27T07:45:38;17.20;1.00
21193;DHT22;10754;51.106;7.164;2023-05-27T07:48:04;17.30;1.00
21193;DHT22;10754;51.106;7.164;2023-05-27T07:50:29;17.30;1.00
21193;DHT22;10754;51.106;7.164;2023-05-27T07:52:55;17.60;1.00
21193;DHT22;10754;51.106;7.164;2023-05-27T07:55:20;17.70;99.90
21193;DHT22;10754;51.106;7.164;2023-05-27T07:57:46;17.50;99.90
21193;DHT22;10754;51.106;7.164;2023-05-27T08:00:12;17.60;99.90
21193;DHT22;10754;51.106;7.164;2023-05-27T08:02:38;17.70;99.90
21193;DHT22;10754;51.106;7.164;2023-05-27T08:05:03;17.70;99.90
21193;DHT22;10754;51.106;7.164;2023-05-27T08:07:30;17.60;99.90
21193;DHT22;10754;51.106;7.164;2023-05-27T08:09:55;17.60;1.40
21193;DHT22;10754;51.106;7.164;2023-05-27T08:12:21;17.90;99.90
21193;DHT22;10754;51.106;7.164;2023-05-27T08:14:48;18.10;99.90
21193;DHT22;10754;51.106;7.164;2023-05-27T08:17:14;18.00;99.90
21193;DHT22;10754;51.106;7.164;2023-05-27T08:19:39;17.90;99.90
21193;DHT22;10754;51.106;7.164;2023-05-27T08:22:05;18.20;99.90
21193;DHT22;10754;51.106;7.164;2023-05-27T08:24:36;18.20;99.90
21193;DHT22;10754;51.106;7.164;2023-05-27T08:27:02;18.20;99.90
21193;DHT22;10754;51.106;7.164;2023-05-27T08:29:32;18.20;99.90
21193;DHT22;10754;51.106;7.164;2023-05-27T08:31:58;18.30;99.90
21193;DHT22;10754;51.106;7.164;2023-05-27T08:34:24;18.30;99.90
21193;DHT22;10754;51.106;7.164;2023-05-27T08:36:51;18.30;99.90
21193;DHT22;10754;51.106;7.164;2023-05-27T08:39:16;18.50;99.90
21193;DHT22;10754;51.106;7.164;2023-05-27T08:41:42;18.90;99.90
21193;DHT22;10754;51.106;7.164;2023-05-27T08:44:08;19.00;99.90
21193;DHT22;10754;51.106;7.164;2023-05-27T08:46:36;18.90;99.90
21193;DHT22;10754;51.106;7.164;2023-05-27T08:49:01;19.00;99.90
21193;DHT22;10754;51.106;7.164;2023-05-27T08:51:27;19.10;99.90
21193;DHT22;10754;51.106;7.164;2023-05-27T08:53:53;19.20;99.90
21193;DHT22;10754;51.106;7.164;2023-05-27T08:56:19;19.40;99.90
21193;DHT22;10754;51.106;7.164;2023-05-27T08:58:47;19.50;99.90
21193;DHT22;10754;51.106;7.164;2023-05-27T09:01:16;19.70;99.90
21193;DHT22;10754;51.106;7.164;2023-05-27T09:03:41;19.70;99.90
21193;DHT22;10754;51.106;7.164;2023-05-27T09:06:07;20.20;99.90
21193;DHT22;10754;51.106;7.164;2023-05-27T09:08:33;20.30;99.90
21193;DHT22;10754;51.106;7.164;2023-05-27T09:10:58;20.20;99.90
21193;DHT22;10754;51.106;7.164;2023-05-27T09:13:28;20.00;99.90
21193;DHT22;10754;51.106;7.164;2023-05-27T09:16:03;20.10;99.90
21193;DHT22;10754;51.106;7.164;2023-05-27T09:18:34;19.90;99.90
21193;DHT22;10754;51.106;7.164;2023-05-27T09:21:00;19.90;99.90
21193;DHT22;10754;51.106;7.164;2023-05-27T09:23:26;19.90;99.90
21193;DHT22;10754;51.106;7.164;2023-05-27T09:25:52;19.80;99.90
21193;DHT22;10754;51.106;7.164;2023-05-27T09:28:24;19.90;99.90
21193;DHT22;10754;51.106;7.164;2023-05-27T09:31:03;20.30;99.90
21193;DHT22;10754;51.106;7.164;2023-05-27T09:33:34;20.40;99.90
21193;DHT22;10754;51.106;7.164;2023-05-27T09:36:01;20.30;99.90
21193;DHT22;10754;51.106;7.164;2023-05-27T09:38:31;20.50;99.90
21193;DHT22;10754;51.106;7.164;2023-05-27T09:40:58;20.80;99.90
21193;DHT22;10754;51.106;7.164;2023-05-27T09:43:25;21.10;99.90
21193;DHT22;10754;51.106;7.164;2023-05-27T09:45:54;21.30;99.90
21193;DHT22;10754;51.106;7.164;2023-05-27T09:48:22;21.10;99.90
21193;DHT22;10754;51.106;7.164;2023-05-27T09:50:49;21.00;99.90
21193;DHT22;10754;51.106;7.164;2023-05-27T09:53:16;20.90;99.90
21193;DHT22;10754;51.106;7.164;2023-05-27T09:55:43;21.10;99.90
21193;DHT22;10754;51.106;7.164;2023-05-27T09:58:09;21.00;99.90
21193;DHT22;10754;51.106;7.164;2023-05-27T10:00:37;21.00;99.90
21193;DHT22;10754;51.106;7.164;2023-05-27T10:03:05;20.90;99.90
21193;DHT22;10754;51.106;7.164;2023-05-27T10:05:32;21.00;99.90
21193;DHT22;10754;51.106;7.164;2023-05-27T10:07:59;21.00;99.90
21193;DHT22;10754;51.106;7.164;2023-05-27T10:10:24;21.30;99.90
21193;DHT22;10754;51.106;7.164;2023-05-27T10:12:51;21.30;99.90
21193;DHT22;10754;51.106;7.164;2023-05-27T10:15:29;21.30;99.90
21193;DHT22;10754;51.106;7.164;2023-05-27T10:17:57;21.30;99.90
21193;DHT22;10754;51.106;7.164;2023-05-27T10:20:37;21.40;99.90
21193;DHT22;10754;51.106;7.164;2023-05-27T10:25:39;21.90;99.90
21193;DHT22;10754;51.106;7.164;2023-05-27T10:28:06;22.00;99.90
21193;DHT22;10754;51.106;7.164;2023-05-27T10:30:45;22.00;99.90
21193;DHT22;10754;51.106;7.164;2023-05-27T10:33:11;22.00;99.90
21193;DHT22;10754;51.106;7.164;2023-05-27T10:35:41;21.90;99.90
21193;DHT22;10754;51.106;7.164;2023-05-27T10:38:17;22.20;99.90
21193;DHT22;10754;51.106;7.164;2023-05-27T10:40:45;22.50;99.90
21193;DHT22;10754;51.106;7.164;2023-05-27T10:43:18;23.00;99.90
21193;DHT22;10754;51.106;7.164;2023-05-27T10:45:46;23.10;99.90
21193;DHT22;10754;51.106;7.164;2023-05-27T10:48:17;23.20;99.90
21193;DHT22;10754;51.106;7.164;2023-05-27T10:50:50;23.40;99.90
21193;DHT22;10754;51.106;7.164;2023-05-27T10:53:18;23.30;99.90
21193;DHT22;10754;51.106;7.164;2023-05-27T10:55:45;23.40;99.90
21193;DHT22;10754;51.106;7.164;2023-05-27T10:58:12;23.40;99.90
21193;DHT22;10754;51.106;7.164;2023-05-27T11:00:38;23.50;99.90
21193;DHT22;10754;51.106;7.164;2023-05-27T11:03:22;23.50;99.90
21193;DHT22;10754;51.106;7.164;2023-05-27T11:06:05;24.00;99.90
21193;DHT22;10754;51.106;7.164;2023-05-27T11:08:31;24.40;99.90
21193;DHT22;10754;51.106;7.164;2023-05-27T11:10:59;24.30;99.90
21193;DHT22;10754;51.106;7.164;2023-05-27T11:13:41;24.20;99.90
21193;DHT22;10754;51.106;7.164;2023-05-27T11:16:08;24.30;99.90
21193;DHT22;10754;51.106;7.164;2023-05-27T11:18:47;24.30;99.90
21193;DHT22;10754;51.106;7.164;2023-05-27T11:21:14;24.50;99.90
21193;DHT22;10754;51.106;7.164;2023-05-27T11:23:42;24.50;99.90
21193;DHT22;10754;51.106;7.164;2023-05-27T11:26:19;25.00;99.90
21193;DHT22;10754;51.106;7.164;2023-05-27T11:28:56;25.50;99.90
21193;DHT22;10754;51.106;7.164;2023-05-27T11:31:28;25.80;99.90
21193;DHT22;10754;51.106;7.164;2023-05-27T11:33:54;25.60;99.90
21193;DHT22;10754;51.106;7.164;2023-05-27T11:36:20;25.60;99.90
21193;DHT22;10754;51.106;7.164;2023-05-27T11:41:22;25.70;99.90
21193;DHT22;10754;51.106;7.164;2023-05-27T11:43:54;26.40;99.90
21193;DHT22;10754;51.106;7.164;2023-05-27T11:46:21;26.20;99.90
21193;DHT22;10754;51.106;7.164;2023-05-27T11:48:47;26.20;99.90
21193;DHT22;10754;51.106;7.164;2023-05-27T11:51:13;26.20;99.90
21193;DHT22;10754;51.106;7.164;2023-05-27T11:53:45;26.40;99.90
21193;DHT22;10754;51.106;7.164;2023-05-27T11:56:11;26.60;99.90
21193;DHT22;10754;51.106;7.164;2023-05-27T11:58:37;26.80;99.90
21193;DHT22;10754;51.106;7.164;2023-05-27T12:01:05;26.90;99.90
21193;DHT22;10754;51.106;7.164;2023-05-27T12:03:33;27.10;99.90
21193;DHT22;10754;51.106;7.164;2023-05-27T12:05:59;27.20;99.90
21193;DHT22;10754;51.106;7.164;2023-05-27T12:08:24;27.40;99.90
21193;DHT22;10754;51.106;7.164;2023-05-27T12:10:50;27.50;99.90
21193;DHT22;10754;51.106;7.164;2023-05-27T12:13:19;27.70;99.90
21193;DHT22;10754;51.106;7.164;2023-05-27T12:15:45;27.90;99.90
21193;DHT22;10754;51.106;7.164;2023-05-27T12:18:11;28.00;99.90
21193;DHT22;10754;51.106;7.164;2023-05-27T12:20:36;28.20;99.90
21193;DHT22;10754;51.106;7.164;2023-05-27T12:23:02;28.50;99.90
21193;DHT22;10754;51.106;7.164;2023-05-27T12:25:27;28.70;99.90
21193;DHT22;10754;51.106;7.164;2023-05-27T12:27:53;28.90;99.90
21193;DHT22;10754;51.106;7.164;2023-05-27T12:30:18;29.30;99.90
21193;DHT22;10754;51.106;7.164;2023-05-27T12:32:44;29.90;99.90
21193;DHT22;10754;51.106;7.164;2023-05-27T12:35:10;30.00;99.90
21193;DHT22;10754;51.106;7.164;2023-05-27T12:37:36;30.30;99.90
21193;DHT22;10754;51.106;7.164;2023-05-27T12:40:01;30.50;99.90
21193;DHT22;10754;51.106;7.164;2023-05-27T12:42:29;31.00;99.90
21193;DHT22;10754;51.106;7.164;2023-05-27T12:44:55;31.20;99.90
21193;DHT22;10754;51.106;7.164;2023-05-27T12:47:21;30.90;99.90
21193;DHT22;10754;51.106;7.164;2023-05-27T12:49:46;30.90;99.90
21193;DHT22;10754;51.106;7.164;2023-05-27T12:52:13;31.00;99.90
21193;DHT22;10754;51.106;7.164;2023-05-27T12:54:39;31.40;99.90
21193;DHT22;10754;51.106;7.164;2023-05-27T12:57:05;32.00;99.90
21193;DHT22;10754;51.106;7.164;2023-05-27T12:59:31;32.30;99.90
21193;DHT22;10754;51.106;7.164;2023-05-27T13:01:58;32.30;99.90
21193;DHT22;10754;51.106;7.164;2023-05-27T13:04:24;32.10;99.90
21193;DHT22;10754;51.106;7.164;2023-05-27T13:06:49;31.80;87.70
21193;DHT22;10754;51.106;7.164;2023-05-27T13:09:15;31.70;84.40
21193;DHT22;10754;51.106;7.164;2023-05-27T13:11:41;31.70;94.60
21193;DHT22;10754;51.106;7.164;2023-05-27T13:14:06;31.70;59.90
21193;DHT22;10754;51.106;7.164;2023-05-27T13:16:32;32.00;78.40
21193;DHT22;10754;51.106;7.164;2023-05-27T13:18:57;32.70;77.10
21193;DHT22;10754;51.106;7.164;2023-05-27T13:21:23;33.00;49.20
21193;DHT22;10754;51.106;7.164;2023-05-27T13:23:48;33.80;58.20
21193;DHT22;10754;51.106;7.164;2023-05-27T13:26:14;34.10;61.10
21193;DHT22;10754;51.106;7.164;2023-05-27T13:28:40;34.00;72.70
21193;DHT22;10754;51.106;7.164;2023-05-27T13:31:06;33.70;75.90
21193;DHT22;10754;51.106;7.164;2023-05-27T13:33:32;33.60;84.00
21193;DHT22;10754;51.106;7.164;2023-05-27T13:35:58;33.70;85.50
21193;DHT22;10754;51.106;7.164;2023-05-27T13:38:23;34.10;75.80
21193;DHT22;10754;51.106;7.164;2023-05-27T13:40:49;34.60;67.00
21193;DHT22;10754;51.106;7.164;2023-05-27T13:43:16;34.50;38.90
21193;DHT22;10754;51.106;7.164;2023-05-27T13:45:42;34.60;11.40
21193;DHT22;10754;51.106;7.164;2023-05-27T13:48:07;34.90;31.10
21193;DHT22;10754;51.106;7.164;2023-05-27T13:50:34;34.70;19.20
21193;DHT22;10754;51.106;7.164;2023-05-27T13:53:00;34.30;9.20
21193;DHT22;10754;51.106;7.164;2023-05-27T13:55:25;33.90;7.60
21193;DHT22;10754;51.106;7.164;2023-05-27T13:57:51;33.90;15.80
21193;DHT22;10754;51.106;7.164;2023-05-27T14:00:17;34.20;10.90
21193;DHT22;10754;51.106;7.164;2023-05-27T14:02:42;34.40;19.60
21193;DHT22;10754;51.106;7.164;2023-05-27T14:05:09;34.20;4.40
21193;DHT22;10754;51.106;7.164;2023-05-27T14:07:39;34.10;15.80
21193;DHT22;10754;51.106;7.164;2023-05-27T14:10:06;34.40;30.90
21193;DHT22;10754;51.106;7.164;2023-05-27T14:12:32;34.50;30.90
21193;DHT22;10754;51.106;7.164;2023-05-27T14:14:57;34.70;29.90
21193;DHT22;10754;51.106;7.164;2023-05-27T14:17:23;34.80;29.70
21193;DHT22;10754;51.106;7.164;2023-05-27T14:19:48;34.90;30.00
21193;DHT22;10754;51.106;7.164;2023-05-27T14:22:14;34.70;19.50
21193;DHT22;10754;51.106;7.164;2023-05-27T14:24:39;34.10;6.60
21193;DHT22;10754;51.106;7.164;2023-05-27T14:27:05;33.80;5.10
21193;DHT22;10754;51.106;7.164;2023-05-27T14:29:32;33.70;18.10
21193;DHT22;10754;51.106;7.164;2023-05-27T14:31:57;33.50;12.80
21193;DHT22;10754;51.106;7.164;2023-05-27T14:34:23;33.40;31.10
21193;DHT22;10754;51.106;7.164;2023-05-27T14:36:48;32.90;51.50
21193;DHT22;10754;51.106;7.164;2023-05-27T14:39:14;32.30;90.70
21193;DHT22;10754;51.106;7.164;2023-05-27T14:41:40;31.60;99.90
21193;DHT22;10754;51.106;7.164;2023-05-27T14:44:06;31.20;99.90
21193;DHT22;10754;51.106;7.164;2023-05-27T14:46:31;30.80;99.90
21193;DHT22;10754;51.106;7.164;2023-05-27T14:48:57;30.40;99.90
21193;DHT22;10754;51.106;7.164;2023-05-27T14:51:23;30.30;99.90
21193;DHT22;10754;51.106;7.164;2023-05-27T14:53:48;30.10;99.90
21193;DHT22;10754;51.106;7.164;2023-05-27T14:56:14;29.90;99.90
21193;DHT22;10754;51.106;7.164;2023-05-27T14:58:39;29.80;99.90
21193;DHT22;10754;51.106;7.164;2023-05-27T15:01:05;29.60;99.90
21193;DHT22;10754;51.106;7.164;2023-05-27T15:03:30;29.40;99.90
21193;DHT22;10754;51.106;7.164;2023-05-27T15:05:57;29.30;99.90
21193;DHT22;10754;51.106;7.164;2023-05-27T15:08:24;29.10;99.90
21193;DHT22;10754;51.106;7.164;2023-05-27T15:10:50;28.90;99.90
21193;DHT22;10754;51.106;7.164;2023-05-27T15:13:16;28.90;99.90
21193;DHT22;10754;51.106;7.164;2023-05-27T15:15:41;28.80;99.90
21193;DHT22;10754;51.106;7.164;2023-05-27T15:18:09;28.80;99.90
21193;DHT22;10754;51.106;7.164;2023-05-27T15:20:35;28.80;99.90
21193;DHT22;10754;51.106;7.164;2023-05-27T15:23:00;28.70;99.90
21193;DHT22;10754;51.106;7.164;2023-05-27T15:25:26;28.50;99.90
21193;DHT22;10754;51.106;7.164;2023-05-27T15:27:52;28.40;99.90
21193;DHT22;10754;51.106;7.164;2023-05-27T15:30:20;28.30;99.90
21193;DHT22;10754;51.106;7.164;2023-05-27T15:32:45;28.20;99.90
21193;DHT22;10754;51.106;7.164;2023-05-27T15:35:11;28.00;99.90
21193;DHT22;10754;51.106;7.164;2023-05-27T15:37:36;27.90;99.90
21193;DHT22;10754;51.106;7.164;2023-05-27T15:40:04;27.80;99.90
21193;DHT22;10754;51.106;7.164;2023-05-27T15:42:31;27.70;99.90